sensor_id;sensor_type;location;lat;lon;timestamp;temperature;humidity
14670;DHT22;7423;48.722;9.350;2023-06-22T00:01:22;25.20;99.90
14670;DHT22;7423;48.722;9.350;2023-06-22T00:03:49;25.30;99.90
14670;DHT22;7423;48.722;9.350;2023-06-22T00:06:16;25.30;99.90
14670;DHT22;7423;48.722;9.350;2023-06-22T00:08:43;25.30;99.90
14670;DHT22;7423;48.722;9.350;2023-06-22T00:11:10;25.30;99.90
14670;DHT22;7423;48.722;9.350;2023-06-22T00:13:38;25.20;99.90
14670;DHT22;7423;48.722;9.350;2023-06-22T00:16:05;25.20;99.90
14670;DHT22;7423;48.722;9.350;2023-06-22T00:18:32;25.20;99.90
14670;DHT22;7423;48.722;9.350;2023-06-22T00:20:59;25.20;99.90
14670;DHT22;7423;48.722;9.350;2023-06-22T00:23:26;25.20;99.90
14670;DHT22;7423;48.722;9.350;2023-06-22T00:25:53;25.20;99.90
14670;DHT22;7423;48.722;9.350;2023-06-22T00:28:20;25.30;99.90
14670;DHT22;7423;48.722;9.350;2023-06-22T00:30:48;25.40;99.90
14670;DHT22;7423;48.722;9.350;2023-06-22T00:33:16;25.30;99.90
14670;DHT22;7423;48.722;9.350;2023-06-22T00:35:43;25.20;99.90
14670;DHT22;7423;48.722;9.350;2023-06-22T00:38:11;25.10;99.90
14670;DHT22;7423;48.722;9.350;2023-06-22T00:40:38;25.00;99.90
14670;DHT22;7423;48.722;9.350;2023-06-22T00:43:05;25.00;99.90
14670;DHT22;7423;48.722;9.350;2023-06-22T00:45:32;25.00;99.90
14670;DHT22;7423;48.722;9.350;2023-06-22T00:48:00;25.00;99.90
14670;DHT22;7423;48.722;9.350;2023-06-22T00:50:30;25.00;99.90
14670;DHT22;7423;48.722;9.350;2023-06-22T00:53:06;24.90;99.90
14670;DHT22;7423;48.722;9.350;2023-06-22T00:55:49;24.90;99.90
14670;DHT22;7423;48.722;9.350;2023-06-22T00:58:19;24.90;99.90
14670;DHT22;7423;48.722;9.350;2023-06-22T01:00:48;26.70;99.90
14670;DHT22;7423;48.722;9.350;2023-06-22T01:03:15;24.80;99.90
14670;DHT22;7423;48.722;9.350;2023-06-22T01:05:44;24.80;99.90
14670;DHT22;7423;48.722;9.350;2023-06-22T01:11:07;24.70;99.90
14670;DHT22;7423;48.722;9.350;2023-06-22T01:16:27;24.80;99.90
14670;DHT22;7423;48.722;9.350;2023-06-22T01:19:00;24.70;99.90
14670;DHT22;7423;48.722;9.350;2023-06-22T01:21:30;24.80;99.90
14670;DHT22;7423;48.722;9.350;2023-06-22T01:24:18;24.80;99.90
14670;DHT22;7423;48.722;9.350;2023-06-22T01:27:05;24.70;99.90
14670;DHT22;7423;48.722;9.350;2023-06-22T01:29:55;24.70;99.90
14670;DHT22;7423;48.722;9.350;2023-06-22T01:32:30;24.60;99.90
14670;DHT22;7423;48.722;9.350;2023-06-22T01:35:01;24.60;99.90
14670;DHT22;7423;48.722;9.350;2023-06-22T01:37:29;24.60;99.90
14670;DHT22;7423;48.722;9.350;2023-06-22T01:39:58;24.70;99.90
14670;DHT22;7423;48.722;9.350;2023-06-22T01:42:26;24.70;99.90
14670;DHT22;7423;48.722;9.350;2023-06-22T01:44:53;24.60;99.90
14670;DHT22;7423;48.722;9.350;2023-06-22T01:47:22;24.60;99.90
14670;DHT22;7423;48.722;9.350;2023-06-22T01:49:49;24.60;99.90
14670;DHT22;7423;48.722;9.350;2023-06-22T01:52:18;24.50;99.90
14670;DHT22;7423;48.722;9.350;2023-06-22T01:54:47;24.50;99.90
14670;DHT22;7423;48.722;9.350;2023-06-22T01:57:15;24.50;99.90
14670;DHT22;7423;48.722;9.350;2023-06-22T02:00:01;24.40;99.90
14670;DHT22;7423;48.722;9.350;2023-06-22T02:02:44;24.60;99.90
14670;DHT22;7423;48.722;9.350;2023-06-22T02:05:57;24.80;99.90
14670;DHT22;7423;48.722;9.350;2023-06-22T02:08:38;24.60;99.90
14670;DHT22;7423;48.722;9.350;2023-06-22T02:11:09;24.50;99.90
14670;DHT22;7423;48.722;9.350;2023-06-22T02:13:37;24.40;99.90
14670;DHT22;7423;48.722;9.350;2023-06-22T02:16:11;24.30;99.90
14670;DHT22;7423;48.722;9.350;2023-06-22T02:18:39;24.30;99.90
14670;DHT22;7423;48.722;9.350;2023-06-22T02:21:13;24.30;99.90
14670;DHT22;7423;48.722;9.350;2023-06-22T02:23:40;24.30;99.90
14670;DHT22;7423;48.722;9.350;2023-06-22T02:26:07;24.20;99.90
14670;DHT22;7423;48.722;9.350;2023-06-22T02:28:35;24.30;99.90
14670;DHT22;7423;48.722;9.350;2023-06-22T02:31:02;24.20;99.90
14670;DHT22;7423;48.722;9.350;2023-06-22T02:33:29;24.20;99.90
14670;DHT22;7423;48.722;9.350;2023-06-22T02:35:55;24.20;99.90
14670;DHT22;7423;48.722;9.350;2023-06-22T02:38:22;24.20;99.90
14670;DHT22;7423;48.722;9.350;2023-06-22T02:40:50;24.20;99.90
14670;DHT22;7423;48.722;9.350;2023-06-22T02:43:17;24.20;99.90
14670;DHT22;7423;48.722;9.350;2023-06-22T02:45:44;24.10;99.90
14670;DHT22;7423;48.722;9.350;2023-06-22T02:48:11;24.10;99.90
14670;DHT22;7423;48.722;9.350;2023-06-22T02:50:38;24.10;99.90
14670;DHT22;7423;48.722;9.350;2023-06-22T02:53:05;24.10;99.90
14670;DHT22;7423;48.722;9.350;2023-06-22T02:55:32;24.30;99.90
14670;DHT22;7423;48.722;9.350;2023-06-22T02:57:59;24.30;99.90
14670;DHT22;7423;48.722;9.350;2023-06-22T03:00:31;24.20;99.90
14670;DHT22;7423;48.722;9.350;2023-06-22T03:02:58;24.10;99.90
14670;DHT22;7423;48.722;9.350;2023-06-22T03:05:26;24.10;99.90
14670;DHT22;7423;48.722;9.350;2023-06-22T03:07:52;24.00;99.90
14670;DHT22;7423;48.722;9.350;2023-06-22T03:10:19;24.00;99.90
14670;DHT22;7423;48.722;9.350;2023-06-22T03:12:46;24.00;99.90
14670;DHT22;7423;48.722;9.350;2023-06-22T03:15:13;23.90;99.90
14670;DHT22;7423;48.722;9.350;2023-06-22T03:17:40;23.90;99.90
14670;DHT22;7423;48.722;9.350;2023-06-22T03:20:09;23.90;99.90
14670;DHT22;7423;48.722;9.350;2023-06-22T03:22:41;23.90;99.90
14670;DHT22;7423;48.722;9.350;2023-06-22T03:25:09;23.90;99.90
14670;DHT22;7423;48.722;9.350;2023-06-22T03:27:42;23.90;99.90
14670;DHT22;7423;48.722;9.350;2023-06-22T03:30:11;23.90;99.90
14670;DHT22;7423;48.722;9.350;2023-06-22T03:32:38;23.90;99.90
14670;DHT22;7423;48.722;9.350;2023-06-22T03:35:06;23.80;99.90
14670;DHT22;7423;48.722;9.350;2023-06-22T03:37:33;23.80;99.90
14670;DHT22;7423;48.722;9.350;2023-06-22T03:40:00;23.70;99.90
14670;DHT22;7423;48.722;9.350;2023-06-22T03:42:27;23.70;99.90
14670;DHT22;7423;48.722;9.350;2023-06-22T03:44:53;23.70;99.90
14670;DHT22;7423;48.722;9.350;2023-06-22T03:47:20;23.70;99.90
14670;DHT22;7423;48.722;9.350;2023-06-22T03:49:47;23.60;99.90
14670;DHT22;7423;48.722;9.350;2023-06-22T03:52:14;23.60;99.90
14670;DHT22;7423;48.722;9.350;2023-06-22T03:54:41;23.60;99.90
14670;DHT22;7423;48.722;9.350;2023-06-22T03:57:08;23.60;99.90
14670;DHT22;7423;48.722;9.350;2023-06-22T03:59:35;23.60;99.90
14670;DHT22;7423;48.722;9.350;2023-06-22T04:02:03;23.60;99.90
14670;DHT22;7423;48.722;9.350;2023-06-22T04:04:30;23.60;99.90
14670;DHT22;7423;48.722;9.350;2023-06-22T04:06:57;23.60;99.90
14670;DHT22;7423;48.722;9.350;2023-06-22T04:09:24;23.60;99.90
14670;DHT22;7423;48.722;9.350;2023-06-22T04:11:51;23.60;99.90
14670;DHT22;7423;48.722;9.350;2023-06-22T04:14:18;23.60;99.90
14670;DHT22;7423;48.722;9.350;2023-06-22T04:16:45;23.70;99.90
14670;DHT22;7423;48.722;9.350;2023-06-22T04:19:12;23.60;99.90
14670;DHT22;7423;48.722;9.350;2023-06-22T04:21:43;23.70;99.90
14670;DHT22;7423;48.722;9.350;2023-06-22T04:24:15;23.60;99.90
14670;DHT22;7423;48.722;9.350;2023-06-22T04:26:42;23.60;99.90
14670;DHT22;7423;48.722;9.350;2023-06-22T04:29:11;24.90;99.90
14670;DHT22;7423;48.722;9.350;2023-06-22T04:31:39;23.50;99.90
14670;DHT22;7423;48.722;9.350;2023-06-22T04:34:06;24.10;99.90
14670;DHT22;7423;48.722;9.350;2023-06-22T04:36:35;23.60;99.90
14670;DHT22;7423;48.722;9.350;2023-06-22T04:39:09;23.60;99.90
14670;DHT22;7423;48.722;9.350;2023-06-22T04:41:38;23.50;99.90
14670;DHT22;7423;48.722;9.350;2023-06-22T04:44:13;23.60;99.90
14670;DHT22;7423;48.722;9.350;2023-06-22T04:46:55;23.60;99.90
14670;DHT22;7423;48.722;9.350;2023-06-22T04:49:36;23.60;99.90
14670;DHT22;7423;48.722;9.350;2023-06-22T04:52:05;23.60;99.90
14670;DHT22;7423;48.722;9.350;2023-06-22T04:54:34;23.60;99.90
14670;DHT22;7423;48.722;9.350;2023-06-22T04:57:04;23.70;99.90
14670;DHT22;7423;48.722;9.350;2023-06-22T04:59:37;23.60;99.90
14670;DHT22;7423;48.722;9.350;2023-06-22T05:02:08;23.60;99.90
14670;DHT22;7423;48.722;9.350;2023-06-22T05:04:35;23.70;99.90
14670;DHT22;7423;48.722;9.350;2023-06-22T05:07:06;23.70;99.90
14670;DHT22;7423;48.722;9.350;2023-06-22T05:09:33;23.70;99.90
14670;DHT22;7423;48.722;9.350;2023-06-22T05:12:03;23.70;99.90
14670;DHT22;7423;48.722;9.350;2023-06-22T05:14:33;23.70;99.90
14670;DHT22;7423;48.722;9.350;2023-06-22T05:17:00;23.70;99.90
14670;DHT22;7423;48.722;9.350;2023-06-22T05:19:30;23.80;99.90
14670;DHT22;7423;48.722;9.350;2023-06-22T05:22:00;23.80;99.90
14670;DHT22;7423;48.722;9.350;2023-06-22T05:24:27;23.80;99.90
14670;DHT22;7423;48.722;9.350;2023-06-22T05:26:54;23.90;99.90
14670;DHT22;7423;48.722;9.350;2023-06-22T05:29:22;23.80;99.90
14670;DHT22;7423;48.722;9.350;2023-06-22T05:31:49;23.80;99.90
14670;DHT22;7423;48.722;9.350;2023-06-22T05:34:16;23.90;99.90
14670;DHT22;7423;48.722;9.350;2023-06-22T05:36:43;23.90;99.90
14670;DHT22;7423;48.722;9.350;2023-06-22T05:39:11;24.00;99.90
14670;DHT22;7423;48.722;9.350;2023-06-22T05:41:40;23.90;99.90
14670;DHT22;7423;48.722;9.350;2023-06-22T05:44:07;23.90;99.90
14670;DHT22;7423;48.722;9.350;2023-06-22T05:46:34;24.00;99.90
14670;DHT22;7423;48.722;9.350;2023-06-22T05:49:01;24.00;99.90
14670;DHT22;7423;48.722;9.350;2023-06-22T05:51:28;24.00;99.90
14670;DHT22;7423;48.722;9.350;2023-06-22T05:53:55;24.00;99.90
14670;DHT22;7423;48.722;9.350;2023-06-22T05:56:22;24.00;99.90
14670;DHT22;7423;48.722;9.350;2023-06-22T05:58:49;24.10;99.90
14670;DHT22;7423;48.722;9.350;2023-06-22T06:01:16;24.10;99.90
14670;DHT22;7423;48.722;9.350;2023-06-22T06:03:42;24.20;99.90
14670;DHT22;7423;48.722;9.350;2023-06-22T06:06:10;24.20;99.90
14670;DHT22;7423;48.722;9.350;2023-06-22T06:08:38;24.30;99.90
14670;DHT22;7423;48.722;9.350;2023-06-22T06:11:05;24.30;99.90
14670;DHT22;7423;48.722;9.350;2023-06-22T06:13:32;24.30;99.90
14670;DHT22;7423;48.722;9.350;2023-06-22T06:15:59;24.40;99.90
14670;DHT22;7423;48.722;9.350;2023-06-22T06:18:27;24.40;99.90
14670;DHT22;7423;48.722;9.350;2023-06-22T06:20:53;24.40;99.90
14670;DHT22;7423;48.722;9.350;2023-06-22T06:23:20;24.50;99.90
14670;DHT22;7423;48.722;9.350;2023-06-22T06:25:47;24.50;99.90
14670;DHT22;7423;48.722;9.350;2023-06-22T06:28:14;24.50;99.90
14670;DHT22;7423;48.722;9.350;2023-06-22T06:30:41;24.50;99.90
14670;DHT22;7423;48.722;9.350;2023-06-22T06:33:09;24.60;99.90
14670;DHT22;7423;48.722;9.350;2023-06-22T06:35:36;24.60;99.90
14670;DHT22;7423;48.722;9.350;2023-06-22T06:38:04;24.70;99.90
14670;DHT22;7423;48.722;9.350;2023-06-22T06:40:31;24.70;99.90
14670;DHT22;7423;48.722;9.350;2023-06-22T06:42:58;24.80;99.90
14670;DHT22;7423;48.722;9.350;2023-06-22T06:45:26;24.80;99.90
14670;DHT22;7423;48.722;9.350;2023-06-22T06:47:54;24.80;99.90
14670;DHT22;7423;48.722;9.350;2023-06-22T06:50:22;24.90;99.90
14670;DHT22;7423;48.722;9.350;2023-06-22T06:52:48;24.90;99.90
14670;DHT22;7423;48.722;9.350;2023-06-22T06:55:17;24.90;99.90
14670;DHT22;7423;48.722;9.350;2023-06-22T06:57:46;25.00;99.90
14670;DHT22;7423;48.722;9.350;2023-06-22T07:00:15;25.00;99.90
14670;DHT22;7423;48.722;9.350;2023-06-22T07:02:44;25.00;99.90
14670;DHT22;7423;48.722;9.350;2023-06-22T07:05:12;25.10;99.90
14670;DHT22;7423;48.722;9.350;2023-06-22T07:07:40;25.10;99.90
14670;DHT22;7423;48.722;9.350;2023-06-22T07:10:08;25.10;99.90
14670;DHT22;7423;48.722;9.350;2023-06-22T07:12:35;25.20;99.90
14670;DHT22;7423;48.722;9.350;2023-06-22T07:15:07;25.20;99.90
14670;DHT22;7423;48.722;9.350;2023-06-22T07:17:36;25.30;99.90
14670;DHT22;7423;48.722;9.350;2023-06-22T07:20:04;25.30;99.90
14670;DHT22;7423;48.722;9.350;2023-06-22T07:22:40;25.50;99.90
14670;DHT22;7423;48.722;9.350;2023-06-22T07:25:11;25.50;99.90
14670;DHT22;7423;48.722;9.350;2023-06-22T07:27:46;25.50;99.90
14670;DHT22;7423;48.722;9.350;2023-06-22T07:30:23;25.50;99.90
14670;DHT22;7423;48.722;9.350;2023-06-22T07:32:50;25.70;99.90
14670;DHT22;7423;48.722;9.350;2023-06-22T07:35:17;25.70;99.90
14670;DHT22;7423;48.722;9.350;2023-06-22T07:37:44;25.70;99.90
14670;DHT22;7423;48.722;9.350;2023-06-22T07:40:12;25.10;99.90
14670;DHT22;7423;48.722;9.350;2023-06-22T07:42:39;25.80;99.90
14670;DHT22;7423;48.722;9.350;2023-06-22T07:45:07;25.80;99.90
14670;DHT22;7423;48.722;9.350;2023-06-22T07:47:36;25.80;99.90
14670;DHT22;7423;48.722;9.350;2023-06-22T07:50:04;25.90;99.90
14670;DHT22;7423;48.722;9.350;2023-06-22T07:52:31;26.00;99.90
14670;DHT22;7423;48.722;9.350;2023-06-22T07:54:58;26.00;99.90
14670;DHT22;7423;48.722;9.350;2023-06-22T07:57:25;26.00;99.90
14670;DHT22;7423;48.722;9.350;2023-06-22T08:00:01;26.20;99.90
14670;DHT22;7423;48.722;9.350;2023-06-22T08:02:30;26.10;99.90
14670;DHT22;7423;48.722;9.350;2023-06-22T08:04:57;26.20;99.90
14670;DHT22;7423;48.722;9.350;2023-06-22T08:07:44;26.20;99.90
14670;DHT22;7423;48.722;9.350;2023-06-22T08:10:14;26.30;99.90
14670;DHT22;7423;48.722;9.350;2023-06-22T08:12:41;26.40;99.90
14670;DHT22;7423;48.722;9.350;2023-06-22T08:15:08;26.40;99.90
14670;DHT22;7423;48.722;9.350;2023-06-22T08:17:37;26.50;99.90
14670;DHT22;7423;48.722;9.350;2023-06-22T08:20:06;26.60;99.90
14670;DHT22;7423;48.722;9.350;2023-06-22T08:22:37;26.60;99.90
14670;DHT22;7423;48.722;9.350;2023-06-22T08:25:04;26.70;99.90
14670;DHT22;7423;48.722;9.350;2023-06-22T08:27:32;26.80;99.90
14670;DHT22;7423;48.722;9.350;2023-06-22T08:29:59;26.80;99.90
14670;DHT22;7423;48.722;9.350;2023-06-22T08:32:30;26.90;99.90
14670;DHT22;7423;48.722;9.350;2023-06-22T08:34:59;27.00;99.90
14670;DHT22;7423;48.722;9.350;2023-06-22T08:37:26;27.00;99.90
14670;DHT22;7423;48.722;9.350;2023-06-22T08:40:04;27.10;99.90
14670;DHT22;7423;48.722;9.350;2023-06-22T08:42:36;27.10;99.90
14670;DHT22;7423;48.722;9.350;2023-06-22T08:45:03;27.10;99.90
14670;DHT22;7423;48.722;9.350;2023-06-22T08:47:31;27.10;99.90
14670;DHT22;7423;48.722;9.350;2023-06-22T08:49:57;27.20;99.90
14670;DHT22;7423;48.722;9.350;2023-06-22T08:52:24;27.30;99.90
14670;DHT22;7423;48.722;9.350;2023-06-22T08:54:51;27.30;99.90
14670;DHT22;7423;48.722;9.350;2023-06-22T08:57:18;27.30;99.90
14670;DHT22;7423;48.722;9.350;2023-06-22T08:59:45;27.30;99.90
14670;DHT22;7423;48.722;9.350;2023-06-22T09:02:12;27.40;99.90
14670;DHT22;7423;48.722;9.350;2023-06-22T09:04:39;27.50;99.90
14670;DHT22;7423;48.722;9.350;2023-06-22T09:07:07;27.50;99.90
14670;DHT22;7423;48.722;9.350;2023-06-22T09:09:34;27.60;99.90
14670;DHT22;7423;48.722;9.350;2023-06-22T09:12:01;27.70;99.90
14670;DHT22;7423;48.722;9.350;2023-06-22T09:14:27;27.80;99.90
14670;DHT22;7423;48.722;9.350;2023-06-22T09:16:54;27.80;99.90
14670;DHT22;7423;48.722;9.350;2023-06-22T09:19:21;27.90;99.90
14670;DHT22;7423;48.722;9.350;2023-06-22T09:21:48;28.00;99.90
14670;DHT22;7423;48.722;9.350;2023-06-22T09:24:15;28.10;99.90
14670;DHT22;7423;48.722;9.350;2023-06-22T09:26:42;28.10;99.90
14670;DHT22;7423;48.722;9.350;2023-06-22T09:29:08;28.20;99.90
14670;DHT22;7423;48.722;9.350;2023-06-22T09:31:35;28.20;99.90
14670;DHT22;7423;48.722;9.350;2023-06-22T09:34:02;28.20;99.90
14670;DHT22;7423;48.722;9.350;2023-06-22T09:36:29;28.30;99.90
14670;DHT22;7423;48.722;9.350;2023-06-22T09:38:56;28.30;99.90
14670;DHT22;7423;48.722;9.350;2023-06-22T09:41:25;28.20;99.90
14670;DHT22;7423;48.722;9.350;2023-06-22T09:43:52;28.40;99.90
14670;DHT22;7423;48.722;9.350;2023-06-22T09:46:22;28.50;99.90
14670;DHT22;7423;48.722;9.350;2023-06-22T09:48:52;28.70;99.90
14670;DHT22;7423;48.722;9.350;2023-06-22T09:51:19;28.70;99.90
14670;DHT22;7423;48.722;9.350;2023-06-22T09:53:48;28.70;99.90
14670;DHT22;7423;48.722;9.350;2023-06-22T09:56:15;28.70;99.90
14670;DHT22;7423;48.722;9.350;2023-06-22T09:58:43;28.80;99.90
14670;DHT22;7423;48.722;9.350;2023-06-22T10:01:10;28.90;99.90
14670;DHT22;7423;48.722;9.350;2023-06-22T10:03:37;29.00;99.90
14670;DHT22;7423;48.722;9.350;2023-06-22T10:06:05;29.00;99.90
14670;DHT22;7423;48.722;9.350;2023-06-22T10:08:32;29.00;99.90
14670;DHT22;7423;48.722;9.350;2023-06-22T10:10:58;29.00;99.90
14670;DHT22;7423;48.722;9.350;2023-06-22T10:13:25;29.10;99.90
14670;DHT22;7423;48.722;9.350;2023-06-22T10:15:52;29.10;99.90
14670;DHT22;7423;48.722;9.350;2023-06-22T10:18:20;29.20;99.90
14670;DHT22;7423;48.722;9.350;2023-06-22T10:20:48;29.20;99.90
14670;DHT22;7423;48.722;9.350;2023-06-22T10:23:22;29.30;99.90
14670;DHT22;7423;48.722;9.350;2023-06-22T10:25:49;29.20;99.90
14670;DHT22;7423;48.722;9.350;2023-06-22T10:28:16;29.20;99.90
14670;DHT22;7423;48.722;9.350;2023-06-22T10:30:43;29.40;99.90
14670;DHT22;7423;48.722;9.350;2023-06-22T10:33:11;29.40;99.90
14670;DHT22;7423;48.722;9.350;2023-06-22T10:35:38;29.60;99.90
14670;DHT22;7423;48.722;9.350;2023-06-22T10:38:06;29.50;99.90
14670;DHT22;7423;48.722;9.350;2023-06-22T10:40:33;29.50;99.90
14670;DHT22;7423;48.722;9.350;2023-06-22T10:43:00;29.70;99.90
14670;DHT22;7423;48.722;9.350;2023-06-22T10:45:27;29.70;99.90
14670;DHT22;7423;48.722;9.350;2023-06-22T10:47:55;29.80;99.90
14670;DHT22;7423;48.722;9.350;2023-06-22T10:50:22;29.80;99.90
14670;DHT22;7423;48.722;9.350;2023-06-22T10:52:51;29.90;99.90
14670;DHT22;7423;48.722;9.350;2023-06-22T10:55:18;30.10;99.90
14670;DHT22;7423;48.722;9.350;2023-06-22T10:57:45;30.10;99.90
14670;DHT22;7423;48.722;9.350;2023-06-22T11:00:14;30.20;99.90
14670;DHT22;7423;48.722;9.350;2023-06-22T11:02:42;30.20;99.90
14670;DHT22;7423;48.722;9.350;2023-06-22T11:05:10;30.30;99.90
14670;DHT22;7423;48.722;9.350;2023-06-22T11:07:41;30.30;99.90
14670;DHT22;7423;48.722;9.350;2023-06-22T11:10:12;30.30;99.90
14670;DHT22;7423;48.722;9.350;2023-06-22T11:12:39;30.30;99.90
14670;DHT22;7423;48.722;9.350;2023-06-22T11:15:07;30.30;99.90
14670;DHT22;7423;48.722;9.350;2023-06-22T11:17:35;30.40;99.90
14670;DHT22;7423;48.722;9.350;2023-06-22T11:20:02;30.40;99.90
14670;DHT22;7423;48.722;9.350;2023-06-22T11:22:37;30.50;99.90
14670;DHT22;7423;48.722;9.350;2023-06-22T11:25:06;30.60;99.90
14670;DHT22;7423;48.722;9.350;2023-06-22T11:27:34;30.50;99.90
14670;DHT22;7423;48.722;9.350;2023-06-22T11:30:01;30.60;99.90
14670;DHT22;7423;48.722;9.350;2023-06-22T11:32:27;30.70;99.90
14670;DHT22;7423;48.722;9.350;2023-06-22T11:34:54;30.80;99.80
14670;DHT22;7423;48.722;9.350;2023-06-22T11:37:21;30.90;99.70
14670;DHT22;7423;48.722;9.350;2023-06-22T11:39:48;31.10;99.40
14670;DHT22;7423;48.722;9.350;2023-06-22T11:42:32;31.10;98.50
14670;DHT22;7423;48.722;9.350;2023-06-22T11:44:58;31.20;98.40
14670;DHT22;7423;48.722;9.350;2023-06-22T11:47:26;31.20;98.50
14670;DHT22;7423;48.722;9.350;2023-06-22T11:49:53;31.30;98.50
14670;DHT22;7423;48.722;9.350;2023-06-22T11:52:20;31.30;97.70
14670;DHT22;7423;48.722;9.350;2023-06-22T11:54:47;31.40;97.40
14670;DHT22;7423;48.722;9.350;2023-06-22T11:57:14;31.40;97.00
14670;DHT22;7423;48.722;9.350;2023-06-22T11:59:41;31.40;97.50
14670;DHT22;7423;48.722;9.350;2023-06-22T12:02:08;31.40;97.40
14670;DHT22;7423;48.722;9.350;2023-06-22T12:04:36;31.40;97.60
14670;DHT22;7423;48.722;9.350;2023-06-22T12:07:03;31.40;97.70
14670;DHT22;7423;48.722;9.350;2023-06-22T12:09:31;31.40;97.20
14670;DHT22;7423;48.722;9.350;2023-06-22T12:11:58;31.50;97.20
14670;DHT22;7423;48.722;9.350;2023-06-22T12:14:25;31.40;96.90
14670;DHT22;7423;48.722;9.350;2023-06-22T12:16:52;31.50;96.90
14670;DHT22;7423;48.722;9.350;2023-06-22T12:19:21;31.40;96.90
14670;DHT22;7423;48.722;9.350;2023-06-22T12:21:48;31.40;96.80
14670;DHT22;7423;48.722;9.350;2023-06-22T12:24:18;31.50;96.90
14670;DHT22;7423;48.722;9.350;2023-06-22T12:26:45;31.50;96.80
14670;DHT22;7423;48.722;9.350;2023-06-22T12:29:14;31.50;96.80
14670;DHT22;7423;48.722;9.350;2023-06-22T12:31:41;31.40;96.80
14670;DHT22;7423;48.722;9.350;2023-06-22T12:34:09;31.40;96.80
14670;DHT22;7423;48.722;9.350;2023-06-22T12:36:40;31.40;96.80
14670;DHT22;7423;48.722;9.350;2023-06-22T12:39:07;31.40;96.80
14670;DHT22;7423;48.722;9.350;2023-06-22T12:41:34;31.30;97.10
14670;DHT22;7423;48.722;9.350;2023-06-22T12:44:03;31.30;96.70
14670;DHT22;7423;48.722;9.350;2023-06-22T12:46:33;31.30;96.70
14670;DHT22;7423;48.722;9.350;2023-06-22T12:49:05;31.40;96.90
14670;DHT22;7423;48.722;9.350;2023-06-22T12:51:32;31.40;97.10
14670;DHT22;7423;48.722;9.350;2023-06-22T12:54:00;31.30;97.20
14670;DHT22;7423;48.722;9.350;2023-06-22T12:56:27;31.30;97.20
14670;DHT22;7423;48.722;9.350;2023-06-22T12:58:54;31.30;97.20
14670;DHT22;7423;48.722;9.350;2023-06-22T13:01:21;31.30;97.20
14670;DHT22;7423;48.722;9.350;2023-06-22T13:03:48;31.20;97.40
14670;DHT22;7423;48.722;9.350;2023-06-22T13:06:15;31.20;97.40
14670;DHT22;7423;48.722;9.350;2023-06-22T13:08:42;31.20;97.50
14670;DHT22;7423;48.722;9.350;2023-06-22T13:11:29;31.20;97.70
14670;DHT22;7423;48.722;9.350;2023-06-22T13:13:56;31.20;97.10
14670;DHT22;7423;48.722;9.350;2023-06-22T13:16:23;31.20;97.00
14670;DHT22;7423;48.722;9.350;2023-06-22T13:18:50;31.10;96.20
14670;DHT22;7423;48.722;9.350;2023-06-22T13:21:17;31.10;96.10
14670;DHT22;7423;48.722;9.350;2023-06-22T13:23:44;31.10;96.60
14670;DHT22;7423;48.722;9.350;2023-06-22T13:26:10;31.00;97.00
14670;DHT22;7423;48.722;9.350;2023-06-22T13:28:37;31.00;97.40
14670;DHT22;7423;48.722;9.350;2023-06-22T13:31:04;31.00;97.60
14670;DHT22;7423;48.722;9.350;2023-06-22T13:33:32;30.90;97.70
14670;DHT22;7423;48.722;9.350;2023-06-22T13:35:59;31.00;97.40
14670;DHT22;7423;48.722;9.350;2023-06-22T13:38:26;30.90;97.30
14670;DHT22;7423;48.722;9.350;2023-06-22T13:40:53;30.80;97.10
14670;DHT22;7423;48.722;9.350;2023-06-22T13:43:22;30.80;97.20
14670;DHT22;7423;48.722;9.350;2023-06-22T13:45:49;30.80;97.00
14670;DHT22;7423;48.722;9.350;2023-06-22T13:48:16;30.80;96.80
14670;DHT22;7423;48.722;9.350;2023-06-22T13:50:43;30.90;96.80
14670;DHT22;7423;48.722;9.350;2023-06-22T13:53:10;30.80;96.00
14670;DHT22;7423;48.722;9.350;2023-06-22T13:55:37;30.80;96.10
14670;DHT22;7423;48.722;9.350;2023-06-22T13:58:04;30.80;96.10
14670;DHT22;7423;48.722;9.350;2023-06-22T14:00:31;30.80;96.00
14670;DHT22;7423;48.722;9.350;2023-06-22T14:02:58;30.80;96.00
14670;DHT22;7423;48.722;9.350;2023-06-22T14:05:25;30.80;95.90
14670;DHT22;7423;48.722;9.350;2023-06-22T14:07:52;30.80;95.70
14670;DHT22;7423;48.722;9.350;2023-06-22T14:10:19;30.80;95.60
14670;DHT22;7423;48.722;9.350;2023-06-22T14:12:46;31.00;95.90
14670;DHT22;7423;48.722;9.350;2023-06-22T14:15:13;31.00;95.80
14670;DHT22;7423;48.722;9.350;2023-06-22T14:17:40;31.00;95.60
14670;DHT22;7423;48.722;9.350;2023-06-22T14:20:07;31.00;95.50
14670;DHT22;7423;48.722;9.350;2023-06-22T14:22:37;31.00;95.20
14670;DHT22;7423;48.722;9.350;2023-06-22T14:25:05;31.00;94.70
14670;DHT22;7423;48.722;9.350;2023-06-22T14:27:32;31.00;94.80
14670;DHT22;7423;48.722;9.350;2023-06-22T14:29:59;30.90;94.90
14670;DHT22;7423;48.722;9.350;2023-06-22T14:32:27;30.80;94.80
14670;DHT22;7423;48.722;9.350;2023-06-22T14:34:56;30.90;94.80
14670;DHT22;7423;48.722;9.350;2023-06-22T14:37:23;31.00;95.10
14670;DHT22;7423;48.722;9.350;2023-06-22T14:39:50;31.00;95.10
14670;DHT22;7423;48.722;9.350;2023-06-22T14:42:17;31.00;95.10
14670;DHT22;7423;48.722;9.350;2023-06-22T14:44:44;31.00;95.30
14670;DHT22;7423;48.722;9.350;2023-06-22T14:47:11;31.00;94.90
14670;DHT22;7423;48.722;9.350;2023-06-22T14:49:38;31.10;95.10
14670;DHT22;7423;48.722;9.350;2023-06-22T14:52:05;31.10;94.90
14670;DHT22;7423;48.722;9.350;2023-06-22T14:54:34;31.10;94.70
14670;DHT22;7423;48.722;9.350;2023-06-22T14:57:00;31.10;94.80
14670;DHT22;7423;48.722;9.350;2023-06-22T14:59:27;31.10;94.40
14670;DHT22;7423;48.722;9.350;2023-06-22T15:01:54;31.10;94.60
14670;DHT22;7423;48.722;9.350;2023-06-22T15:04:21;31.20;94.80
14670;DHT22;7423;48.722;9.350;2023-06-22T15:06:48;31.30;94.50
14670;DHT22;7423;48.722;9.350;2023-06-22T15:09:15;31.40;94.30
14670;DHT22;7423;48.722;9.350;2023-06-22T15:11:43;31.30;93.50
14670;DHT22;7423;48.722;9.350;2023-06-22T15:14:13;31.30;91.90
14670;DHT22;7423;48.722;9.350;2023-06-22T15:16:40;31.40;90.80
14670;DHT22;7423;48.722;9.350;2023-06-22T15:19:07;31.30;88.10
14670;DHT22;7423;48.722;9.350;2023-06-22T15:21:34;31.30;87.50
14670;DHT22;7423;48.722;9.350;2023-06-22T15:24:01;31.40;87.60
14670;DHT22;7423;48.722;9.350;2023-06-22T15:26:28;31.50;87.60
14670;DHT22;7423;48.722;9.350;2023-06-22T15:28:55;31.50;85.70
14670;DHT22;7423;48.722;9.350;2023-06-22T15:31:22;31.60;85.60
14670;DHT22;7423;48.722;9.350;2023-06-22T15:33:49;31.70;84.50
14670;DHT22;7423;48.722;9.350;2023-06-22T15:36:16;31.70;83.80
14670;DHT22;7423;48.722;9.350;2023-06-22T15:38:43;31.80;83.50
14670;DHT22;7423;48.722;9.350;2023-06-22T15:41:10;31.80;83.20
14670;DHT22;7423;48.722;9.350;2023-06-22T15:43:36;31.80;82.30
14670;DHT22;7423;48.722;9.350;2023-06-22T15:46:03;31.70;82.00
14670;DHT22;7423;48.722;9.350;2023-06-22T15:48:30;31.90;82.10
14670;DHT22;7423;48.722;9.350;2023-06-22T15:50:57;31.90;82.10
14670;DHT22;7423;48.722;9.350;2023-06-22T15:53:24;31.90;81.30
14670;DHT22;7423;48.722;9.350;2023-06-22T15:55:51;31.90;80.50
14670;DHT22;7423;48.722;9.350;2023-06-22T15:58:19;31.90;80.80